Time;durP1;ratioP1;P1;durP2;ratioP2;P2;SDS_P1;SDS_P2;PMS_P1;PMS_P2;Temp;Humidity;BMP_temperature;BMP_pressure;BME280_temperature;BME280_humidity;BME280_pressure;Samples;Min_cycle;Max_cycle;Signal;HPM_P1;HPM_P2
2022/12/10 00:01:47;;;;;;;76.22;28.60;;;;;;;16.26;83.03;100247.69;5052280;28;20342;-75
2022/12/10 00:04:13;;;;;;;65.50;27.17;;;;;;;16.36;82.64;100239.38;5050769;28;20035;-75
2022/12/10 00:06:40;;;;;;;59.10;26.90;;;;;;;16.37;82.47;100246.47;5051228;28;20021;-74
2022/12/10 00:09:09;;;;;;;63.63;26.58;;;;;;;16.48;82.25;100243.44;5050712;28;20405;-76
2022/12/10 00:11:34;;;;;;;71.50;28.33;;;;;;;16.27;82.21;100208.66;5050770;28;20065;-74
2022/12/10 00:14:00;;;;;;;64.53;26.75;;;;;;;16.46;81.57;100250.88;5050642;28;20055;-76
2022/12/10 00:16:28;;;;;;;54.88;25.75;;;;;;;16.41;81.46;100235.13;5050281;28;20124;-73
2022/12/10 00:18:54;;;;;;;62.58;25.02;;;;;;;16.42;81.33;100222.41;5050337;28;20078;-75
2022/12/10 00:21:22;;;;;;;68.55;27.40;;;;;;;16.42;81.64;100227.84;5049500;28;20025;-75
2022/12/10 00:23:49;;;;;;;54.60;26.95;;;;;;;16.39;81.14;100228.19;5050175;28;20056;-75
2022/12/10 00:26:20;;;;;;;69.75;27.30;;;;;;;16.37;80.99;100213.91;5049910;28;20460;-76
2022/12/10 00:28:46;;;;;;;60.08;27.33;;;;;;;16.38;80.88;100211.03;5050066;28;20017;-75
2022/12/10 00:31:14;;;;;;;64.20;26.17;;;;;;;16.42;80.86;100222.41;5050656;28;20025;-75
2022/12/10 00:33:42;;;;;;;54.47;25.80;;;;;;;16.40;81.19;100219.00;5050147;28;20032;-75
2022/12/10 00:36:10;;;;;;;66.85;27.77;;;;;;;16.39;81.18;100220.03;5049027;28;20479;-75
2022/12/10 00:38:37;;;;;;;57.17;27.38;;;;;;;16.26;81.23;100201.56;5050278;28;20096;-74
2022/12/10 00:41:03;;;;;;;67.50;29.00;;;;;;;16.36;81.45;100217.66;5049610;28;20040;-76
2022/12/10 00:43:29;;;;;;;77.68;27.88;;;;;;;16.15;81.46;100183.75;5049686;28;20448;-75
2022/12/10 00:45:55;;;;;;;70.55;25.80;;;;;;;16.28;81.42;100205.81;5049051;28;20025;-75
2022/12/10 00:48:21;;;;;;;65.25;28.92;;;;;;;16.26;81.75;100213.28;5050294;28;20032;-75
2022/12/10 00:51:07;;;;;;;67.35;29.65;;;;;;;16.26;81.75;100216.00;5049834;28;20079;-75
2022/12/10 00:53:35;;;;;;;52.60;27.27;;;;;;;16.05;81.69;100172.25;5049754;28;20064;-73
2022/12/10 00:56:01;;;;;;;77.10;27.50;;;;;;;16.23;82.04;100197.34;5048180;28;20068;-76
2022/12/10 00:58:28;;;;;;;80.53;30.73;;;;;;;16.26;82.23;100197.00;5049895;28;20431;-77
2022/12/10 01:00:54;;;;;;;69.15;30.63;;;;;;;16.23;82.06;100202.75;5048444;28;20882;-76
2022/12/10 01:03:20;;;;;;;63.35;28.38;;;;;;;16.18;81.81;100191.56;5055685;28;20036;-76
2022/12/10 01:05:45;;;;;;;76.05;30.50;;;;;;;16.22;81.81;100200.19;5056078;28;20028;-74
2022/12/10 01:08:11;;;;;;;63.47;29.13;;;;;;;16.08;81.53;100174.63;5052370;28;20025;-76
2022/12/10 01:10:36;;;;;;;68.60;29.35;;;;;;;16.16;81.56;100196.31;5051617;28;20056;-78
2022/12/10 01:13:02;;;;;;;64.40;28.85;;;;;;;15.97;82.13;100176.81;5049147;28;20037;-79
2022/12/10 01:15:28;;;;;;;78.32;29.55;;;;;;;16.06;82.55;100190.22;5050154;28;20044;-77
2022/12/10 01:17:53;;;;;;;64.97;28.10;;;;;;;15.91;82.70;100186.50;5049909;28;20467;-78
2022/12/10 01:20:19;;;;;;;73.03;31.50;;;;;;;15.70;83.32;100173.44;5049644;28;20140;-74
2022/12/10 01:22:44;;;;;;;74.78;30.52;;;;;;;15.82;84.05;100175.81;5050056;28;20455;-76
2022/12/10 01:25:09;;;;;;;78.93;31.80;;;;;;;15.72;84.18;100186.81;5048769;28;20025;-75
2022/12/10 01:27:35;;;;;;;74.22;31.20;;;;;;;15.58;85.17;100173.94;5050150;28;20039;-79
2022/12/10 01:30:00;;;;;;;84.88;30.60;;;;;;;15.61;85.37;100179.03;5049708;28;20033;-75
2022/12/10 01:32:26;;;;;;;69.72;30.35;;;;;;;15.63;85.44;100177.84;5049168;28;20416;-75
2022/12/10 01:34:51;;;;;;;86.53;32.10;;;;;;;15.58;85.22;100163.09;5049019;28;20120;-74
2022/12/10 01:37:17;;;;;;;80.97;32.20;;;;;;;15.39;85.87;100152.53;5046615;28;20420;-76
2022/12/10 01:39:42;;;;;;;80.93;31.45;;;;;;;15.51;86.50;100157.50;5048621;28;20473;-75
2022/12/10 01:42:13;;;;;;;66.25;32.00;;;;;;;15.50;86.26;100144.13;5048729;28;20536;-74
2022/12/10 01:44:42;;;;;;;79.07;31.10;;;;;;;15.62;86.35;100159.91;5063349;28;20049;-75
2022/12/10 01:47:07;;;;;;;64.88;30.38;;;;;;;15.66;85.78;100154.94;5049017;28;20040;-74
2022/12/10 01:49:36;;;;;;;75.50;30.40;;;;;;;15.66;85.85;100152.25;5048785;28;20523;-76
2022/12/10 01:52:03;;;;;;;69.40;29.95;;;;;;;15.65;85.91;100137.00;5049112;28;20114;-74
2022/12/10 01:54:32;;;;;;;70.47;31.33;;;;;;;15.70;85.14;100151.75;5048846;28;20028;-73
2022/12/10 01:57:04;;;;;;;65.97;29.67;;;;;;;15.67;84.97;100141.25;5050881;28;20087;-74
2022/12/10 01:59:31;;;;;;;68.30;27.58;;;;;;;15.57;84.71;100124.28;5053394;28;20053;-76
2022/12/10 02:02:19;;;;;;;68.55;30.73;;;;;;;15.70;84.91;100134.63;5052995;28;20033;-76
2022/12/10 02:05:04;;;;;;;62.03;30.15;;;;;;;15.47;84.58;100101.06;5052834;28;20083;-74
2022/12/10 02:07:38;;;;;;;61.67;29.48;;;;;;;15.55;84.40;100114.63;5056976;28;20087;-74
2022/12/10 02:10:25;;;;;;;77.90;30.10;;;;;;;15.64;84.81;100130.75;5056758;28;20032;-75
2022/12/10 02:13:18;;;;;;;75.43;31.55;;;;;;;15.63;84.61;100134.47;5053592;28;20123;-74
2022/12/10 02:15:51;;;;;;;55.88;28.90;;;;;;;15.43;84.68;100115.97;5052717;28;20469;-73
2022/12/10 02:18:24;;;;;;;60.30;29.83;;;;;;;15.52;85.13;100121.25;5053008;28;20036;-74
2022/12/10 02:20:54;;;;;;;81.55;29.15;;;;;;;15.46;85.20;100104.78;5052760;28;20021;-74
2022/12/10 02:23:30;;;;;;;82.47;30.33;;;;;;;15.47;85.37;100118.19;5052511;28;20039;-75
2022/12/10 02:26:02;;;;;;;66.60;31.77;;;;;;;15.48;85.57;100121.75;5052521;28;20031;-74
2022/12/10 02:28:45;;;;;;;70.93;30.00;;;;;;;15.35;85.32;100086.16;5052619;28;20472;-74
2022/12/10 02:31:16;;;;;;;70.25;31.45;;;;;;;15.49;85.00;100110.75;5052423;28;20518;-74
2022/12/10 02:33:48;;;;;;;72.97;30.50;;;;;;;15.58;84.71;100117.88;5052346;28;20041;-75
2022/12/10 02:36:14;;;;;;;71.35;31.70;;;;;;;15.57;84.80;100118.03;5052297;28;20029;-76
2022/12/10 02:38:43;;;;;;;76.75;31.02;;;;;;;15.58;84.67;100119.72;5052367;28;20036;-76
2022/12/10 02:41:15;;;;;;;70.10;28.73;;;;;;;15.55;84.44;100120.06;5052200;28;20031;-76
2022/12/10 02:43:42;;;;;;;67.00;30.70;;;;;;;15.65;84.59;100116.19;5052046;28;20051;-75
2022/12/10 02:46:07;;;;;;;58.13;29.60;;;;;;;15.64;84.35;100108.19;5052093;28;20492;-75
2022/12/10 02:48:35;;;;;;;76.05;28.23;;;;;;;15.64;84.34;100106.34;5052018;28;20107;-75
2022/12/10 02:51:00;;;;;;;65.70;29.63;;;;;;;15.58;84.26;100104.31;5052065;28;20045;-74
2022/12/10 02:53:26;;;;;;;57.25;27.58;;;;;;;15.69;84.49;100106.66;5052115;28;20099;-75
2022/12/10 02:56:28;;;;;;;57.00;27.05;;;;;;;15.68;84.36;100106.84;5052077;28;20398;-76
2022/12/10 02:59:02;;;;;;;61.70;28.03;;;;;;;15.70;84.25;100093.97;5051775;28;20086;-75
2022/12/10 03:01:37;;;;;;;57.92;27.50;;;;;;;15.70;84.02;100102.09;5051809;28;20594;-75
2022/12/10 03:04:24;;;;;;;57.83;27.10;;;;;;;15.72;83.88;100090.06;5052199;28;20132;-75
2022/12/10 03:07:00;;;;;;;62.15;27.02;;;;;;;15.68;84.15;100082.44;5052150;28;20017;-76
2022/12/10 03:09:38;;;;;;;67.07;30.23;;;;;;;15.69;84.12;100089.53;5050586;28;20102;-77
2022/12/10 03:12:19;;;;;;;73.72;30.60;;;;;;;15.62;84.28;100086.69;5054257;28;20028;-75
2022/12/10 03:14:45;;;;;;;71.03;27.83;;;;;;;15.67;84.46;100086.19;5056290;28;20079;-76
2022/12/10 03:17:13;;;;;;;54.03;27.83;;;;;;;15.68;84.53;100082.44;5053857;28;20589;-75
2022/12/10 03:19:50;;;;;;;65.78;29.65;;;;;;;15.68;85.01;100091.44;5051728;28;20126;-75
2022/12/10 03:22:19;;;;;;;54.63;26.83;;;;;;;15.72;85.06;100091.91;5052423;28;20025;-78
2022/12/10 03:24:45;;;;;;;70.30;27.05;;;;;;;15.75;84.78;100088.88;5052136;28;20047;-74
2022/12/10 03:27:13;;;;;;;68.78;28.13;;;;;;;15.84;84.89;100090.53;5051929;28;20037;-76
2022/12/10 03:29:51;;;;;;;71.88;27.02;;;;;;;15.85;84.97;100094.97;5051876;28;20032;-75
2022/12/10 03:32:19;;;;;;;66.47;26.50;;;;;;;15.87;84.77;100089.38;5051270;28;20530;-76
2022/12/10 03:34:45;;;;;;;54.58;25.60;;;;;;;15.94;84.71;100091.22;5051375;28;20036;-76
2022/12/10 03:37:12;;;;;;;71.55;26.45;;;;;;;15.93;84.46;100089.50;5051256;28;20028;-75
2022/12/10 03:39:39;;;;;;;44.35;24.85;;;;;;;15.84;84.71;100066.13;5050957;28;20033;-75
2022/12/10 03:42:06;;;;;;;57.13;25.58;;;;;;;16.05;84.46;100079.19;5051130;28;20025;-74
2022/12/10 03:44:34;;;;;;;56.47;26.02;;;;;;;16.01;84.25;100073.25;5052819;28;20056;-74
2022/12/10 03:47:01;;;;;;;60.30;27.33;;;;;;;15.95;84.32;100063.09;5050859;28;20025;-74
2022/12/10 03:49:26;;;;;;;59.40;25.73;;;;;;;15.93;84.09;100075.94;5050829;28;20106;-74
2022/12/10 03:51:52;;;;;;;70.03;25.67;;;;;;;15.86;84.17;100072.25;5051102;28;20052;-76
2022/12/10 03:54:17;;;;;;;65.18;26.05;;;;;;;15.89;84.34;100071.06;5050850;28;20030;-75
2022/12/10 03:56:43;;;;;;;58.92;25.75;;;;;;;15.87;84.51;100071.22;5051008;28;20025;-76
2022/12/10 03:59:08;;;;;;;57.97;26.38;;;;;;;15.62;84.53;100034.34;5050642;28;20061;-75
2022/12/10 04:01:34;;;;;;;73.22;29.33;;;;;;;15.80;84.67;100059.41;5051253;28;20037;-75
2022/12/10 04:03:59;;;;;;;47.65;25.92;;;;;;;15.45;85.01;100027.19;5051004;28;20566;-76
2022/12/10 04:06:24;;;;;;;58.67;24.17;;;;;;;15.64;85.84;100060.25;5050762;28;20510;-75
2022/12/10 04:08:52;;;;;;;54.50;25.60;;;;;;;15.71;85.67;100055.84;5050849;28;20028;-75
2022/12/10 04:11:18;;;;;;;68.20;27.63;;;;;;;15.66;86.28;100041.09;5051077;28;20032;-74
2022/12/10 04:16:29;;;;;;;61.28;24.38;;;;;;;15.73;85.41;100058.38;5053960;28;20112;-77
2022/12/10 04:18:56;;;;;;;63.05;25.60;;;;;;;15.84;85.75;100065.31;5054247;28;20020;-76
2022/12/10 04:26:53;;;;;;;66.57;22.73;;;;;;;15.83;86.17;100042.78;5050934;28;20039;-75
2022/12/10 04:29:27;;;;;;;59.78;22.48;;;;;;;15.98;86.41;100062.75;5048204;28;20029;-76
2022/12/10 04:31:54;;;;;;;64.38;23.33;;;;;;;16.03;86.17;100064.91;5050476;28;20174;-77
2022/12/10 04:34:19;;;;;;;60.85;22.88;;;;;;;16.00;85.70;100044.41;5051394;28;20017;-76
2022/12/10 04:36:45;;;;;;;55.38;21.38;;;;;;;16.08;85.74;100057.97;5050831;28;20389;-77
2022/12/10 04:39:11;;;;;;;47.72;20.30;;;;;;;16.17;85.79;100050.66;5050287;28;20029;-76
2022/12/10 04:41:39;;;;;;;60.72;21.38;;;;;;;16.22;85.87;100043.69;5048563;28;20041;-76
2022/12/10 04:44:04;;;;;;;54.22;21.33;;;;;;;16.02;85.92;100025.28;5047572;28;20500;-76
2022/12/10 04:46:30;;;;;;;64.13;21.73;;;;;;;16.18;85.22;100041.47;5049864;28;20052;-76
2022/12/10 04:48:55;;;;;;;50.70;19.58;;;;;;;16.31;85.13;100053.47;5050009;28;20472;-75
2022/12/10 04:51:21;;;;;;;63.65;21.38;;;;;;;16.34;85.24;100053.13;5049811;28;20056;-76
2022/12/10 04:53:46;;;;;;;62.67;21.75;;;;;;;16.43;84.78;100051.22;5049734;28;20021;-77
2022/12/10 04:56:12;;;;;;;60.53;22.52;;;;;;;16.41;84.23;100052.41;5049807;28;20033;-75
2022/12/10 04:58:37;;;;;;;58.72;22.48;;;;;;;16.37;83.79;100056.50;5049559;28;20028;-76
2022/12/10 05:01:09;;;;;;;57.15;22.10;;;;;;;16.49;83.42;100061.38;5049800;28;20044;-73
2022/12/10 05:03:35;;;;;;;60.25;22.40;;;;;;;16.33;82.91;100032.44;5049536;28;20025;-76
2022/12/10 05:06:05;;;;;;;61.58;23.83;;;;;;;16.46;82.65;100072.56;5049335;28;20039;-76
2022/12/10 05:08:31;;;;;;;65.60;22.52;;;;;;;16.46;82.91;100066.31;5050763;28;20154;-74
2022/12/10 05:11:24;;;;;;;63.67;23.48;;;;;;;16.46;82.78;100060.88;5050655;28;20087;-76
2022/12/10 05:13:49;;;;;;;52.55;21.83;;;;;;;16.27;82.39;100035.84;5007602;28;20033;-75
2022/12/10 05:16:17;;;;;;;61.70;24.38;;;;;;;16.37;82.75;100060.06;4974648;28;20465;-75
2022/12/10 05:18:43;;;;;;;51.05;23.58;;;;;;;16.38;82.70;100074.50;5007613;28;20038;-76
2022/12/10 05:21:14;;;;;;;53.55;22.88;;;;;;;16.41;82.73;100076.84;5010568;28;20029;-76
2022/12/10 05:23:44;;;;;;;57.45;23.67;;;;;;;16.32;82.47;100076.03;5011629;28;20038;-76
2022/12/10 05:26:20;;;;;;;63.33;25.00;;;;;;;16.37;82.91;100083.63;5008854;28;20492;-76
2022/12/10 05:28:48;;;;;;;50.92;25.77;;;;;;;16.34;82.64;100085.69;5007490;28;20446;-75
2022/12/10 05:31:16;;;;;;;64.07;24.92;;;;;;;16.34;82.65;100088.41;5006306;28;20212;-76
2022/12/10 05:33:42;;;;;;;76.13;27.42;;;;;;;16.31;82.79;100064.34;5006821;28;20350;-75
2022/12/10 05:36:10;;;;;;;64.93;25.33;;;;;;;16.10;82.52;100033.38;5007126;28;20079;-76
2022/12/10 05:38:35;;;;;;;61.95;24.30;;;;;;;16.38;82.15;100077.19;5006830;28;20284;-74
2022/12/10 05:41:12;;;;;;;76.20;27.48;;;;;;;16.08;81.90;100040.84;5006869;28;20045;-75
2022/12/10 05:43:37;;;;;;;66.63;27.10;;;;;;;16.14;82.24;100073.56;5006677;28;20121;-75
2022/12/10 05:46:06;;;;;;;73.88;29.95;;;;;;;16.21;82.27;100077.25;4990369;28;20103;-75
2022/12/10 05:48:33;;;;;;;61.10;27.08;;;;;;;16.19;82.19;100056.75;5006828;28;20066;-76
2022/12/10 05:51:02;;;;;;;73.88;26.73;;;;;;;16.29;81.93;100084.53;5034286;28;20099;-76
2022/12/10 05:53:28;;;;;;;75.22;28.08;;;;;;;16.27;81.80;100089.25;5048983;28;20555;-75
2022/12/10 05:56:03;;;;;;;73.25;27.45;;;;;;;16.23;82.08;100085.22;5048574;28;20021;-75
2022/12/10 05:58:29;;;;;;;62.92;27.85;;;;;;;16.33;81.81;100094.00;5048932;28;20025;-76
2022/12/10 06:00:55;;;;;;;87.55;28.42;;;;;;;16.18;81.56;100091.16;5048447;28;20025;-76
2022/12/10 06:03:21;;;;;;;68.97;27.65;;;;;;;16.12;81.87;100089.16;5048557;28;20021;-76
2022/12/10 06:05:47;;;;;;;58.70;26.67;;;;;;;16.09;82.06;100070.50;5048831;28;20025;-75
2022/12/10 06:08:12;;;;;;;76.78;29.67;;;;;;;16.01;81.72;100077.81;5048477;28;20028;-76
2022/12/10 06:10:37;;;;;;;68.88;28.52;;;;;;;16.09;81.91;100085.94;5048461;28;20444;-76
2022/12/10 06:13:04;;;;;;;72.82;29.80;;;;;;;16.06;81.97;100075.41;5048451;28;20028;-77
2022/12/10 06:15:30;;;;;;;74.63;30.73;;;;;;;16.00;82.04;100066.13;5048705;28;20037;-76
2022/12/10 06:17:55;;;;;;;60.80;29.20;;;;;;;15.92;81.94;100058.00;5048907;28;20108;-76
2022/12/10 06:20:22;;;;;;;60.83;29.50;;;;;;;16.06;81.91;100083.56;5049202;28;20104;-75
2022/12/10 06:22:47;;;;;;;69.47;30.25;;;;;;;16.02;81.74;100069.53;5048612;28;20109;-76
2022/12/10 06:25:13;;;;;;;100.28;38.03;;;;;;;16.09;82.31;100075.94;5052819;28;20155;-76
2022/12/10 06:27:38;;;;;;;86.20;38.58;;;;;;;16.10;81.89;100084.91;5053422;28;20031;-75
2022/12/10 06:30:04;;;;;;;90.95;39.20;;;;;;;16.08;82.00;100071.53;5051389;28;20039;-74
2022/12/10 06:32:30;;;;;;;89.75;37.35;;;;;;;16.09;81.61;100075.06;5048652;28;20060;-74
2022/12/10 06:34:55;;;;;;;91.95;33.97;;;;;;;15.92;82.03;100049.88;5048684;28;20040;-75
2022/12/10 06:37:21;;;;;;;72.95;33.15;;;;;;;15.98;82.24;100051.91;5048335;28;20021;-76
2022/12/10 06:39:46;;;;;;;127.65;60.28;;;;;;;16.17;82.57;100075.94;5048138;28;20021;-74
2022/12/10 06:42:11;;;;;;;63.97;32.03;;;;;;;16.27;82.38;100079.25;5049245;28;20110;-75
2022/12/10 06:44:37;;;;;;;72.93;33.20;;;;;;;16.30;82.29;100095.19;5052138;28;20021;-75
2022/12/10 06:47:02;;;;;;;92.65;33.63;;;;;;;16.32;82.10;100087.75;5051942;28;20424;-75
2022/12/10 06:49:28;;;;;;;83.60;34.00;;;;;;;16.28;81.91;100075.53;5051905;28;20112;-74
2022/12/10 06:51:53;;;;;;;75.50;34.05;;;;;;;16.40;81.84;100089.56;5051889;28;20412;-74
2022/12/10 06:54:19;;;;;;;78.40;33.78;;;;;;;16.45;81.99;100086.34;5051691;28;20025;-74
2022/12/10 06:56:44;;;;;;;61.80;30.55;;;;;;;16.57;81.79;100090.41;5052084;28;20044;-75
2022/12/10 06:59:09;;;;;;;96.47;33.83;;;;;;;16.68;81.78;100098.16;5051875;28;20032;-76
2022/12/10 07:01:38;;;;;;;68.60;33.00;;;;;;;16.67;81.44;100077.44;5051676;28;20044;-74
2022/12/10 07:04:04;;;;;;;81.25;34.50;;;;;;;16.71;80.78;100081.50;5051593;28;20476;-74
2022/12/10 07:06:30;;;;;;;76.65;32.67;;;;;;;16.83;80.58;100088.22;5053396;28;20033;-74
2022/12/10 07:08:56;;;;;;;77.75;34.83;;;;;;;16.93;80.54;100077.97;5051564;28;20511;-77
2022/12/10 07:11:23;;;;;;;81.57;41.70;;;;;;;16.94;80.10;100071.50;5049741;28;20029;-76
2022/12/10 07:13:49;;;;;;;87.68;35.33;;;;;;;16.98;79.88;100074.72;5051704;28;20021;-76
2022/12/10 07:16:20;;;;;;;85.85;34.33;;;;;;;16.87;79.75;100037.97;5051248;28;20445;-76
2022/12/10 07:18:46;;;;;;;74.55;31.80;;;;;;;17.10;79.32;100067.84;5051364;28;20399;-74
2022/12/10 07:21:16;;;;;;;75.30;32.88;;;;;;;17.24;78.97;100070.66;5051158;28;20029;-75
2022/12/10 07:23:42;;;;;;;85.68;38.38;;;;;;;17.26;78.66;100071.31;5051529;28;20737;-74
2022/12/10 07:26:07;;;;;;;86.43;35.28;;;;;;;17.28;78.59;100069.25;5051363;28;20025;-74
2022/12/10 07:28:33;;;;;;;81.85;32.63;;;;;;;17.14;78.45;100040.16;5052809;28;20025;-74
2022/12/10 07:31:07;;;;;;;91.45;39.20;;;;;;;17.40;78.14;100073.22;5054489;28;20155;-75
2022/12/10 07:33:33;;;;;;;80.38;34.45;;;;;;;17.47;78.01;100077.94;5052956;28;20556;-74
2022/12/10 07:35:58;;;;;;;74.88;34.42;;;;;;;17.46;77.87;100059.94;5050910;28;20060;-75
2022/12/10 07:38:24;;;;;;;78.18;31.90;;;;;;;17.52;77.44;100061.94;5050882;28;20025;-74
2022/12/10 07:40:51;;;;;;;70.10;34.05;;;;;;;17.63;77.33;100072.41;5051042;28;20060;-76
2022/12/10 07:43:16;;;;;;;79.82;35.00;;;;;;;17.67;77.03;100066.41;5050804;28;20029;-75
2022/12/10 07:45:42;;;;;;;90.65;27.83;;;;;;;17.68;77.01;100075.41;5050839;28;20033;-74
2022/12/10 07:48:07;;;;;;;74.13;31.58;;;;;;;17.70;76.81;100060.63;5051262;28;20116;-74
2022/12/10 07:50:33;;;;;;;64.13;24.73;;;;;;;17.68;77.17;100057.22;5050428;28;20459;-75
2022/12/10 07:52:58;;;;;;;74.40;27.80;;;;;;;17.78;77.38;100057.81;5050907;28;20108;-74
2022/12/10 07:55:24;;;;;;;71.43;24.25;;;;;;;17.90;76.95;100053.59;5050209;28;20036;-73
2022/12/10 07:57:49;;;;;;;51.00;24.70;;;;;;;18.02;76.50;100056.69;5052816;28;20682;-73
2022/12/10 08:00:15;;;;;;;58.55;22.80;;;;;;;18.12;76.31;100062.72;5050433;28;20079;-74
2022/12/10 08:02:40;;;;;;;58.67;21.80;;;;;;;18.21;75.70;100056.16;5050225;28;20481;-74
2022/12/10 08:05:06;;;;;;;55.38;22.05;;;;;;;18.31;75.37;100047.72;5050335;28;20029;-75
2022/12/10 08:07:32;;;;;;;57.50;21.67;;;;;;;18.35;75.38;100049.84;5050264;28;20059;-75
2022/12/10 08:09:57;;;;;;;63.47;22.98;;;;;;;18.38;74.86;100043.19;5050493;28;20114;-75
2022/12/10 08:12:23;;;;;;;57.95;21.38;;;;;;;18.51;74.68;100047.97;5050145;28;20033;-74
2022/12/10 08:14:48;;;;;;;57.15;20.20;;;;;;;18.56;74.24;100042.84;5050471;28;20029;-75
2022/12/10 08:17:14;;;;;;;67.95;19.13;;;;;;;18.65;73.70;100047.13;5049958;28;20033;-74
2022/12/10 08:19:39;;;;;;;57.65;22.63;;;;;;;18.66;73.89;100044.22;5050310;28;20028;-74
2022/12/10 08:22:05;;;;;;;76.18;42.00;;;;;;;18.75;73.42;100047.66;5049596;28;20037;-74
2022/12/10 08:24:30;;;;;;;62.55;25.27;;;;;;;18.76;73.10;100039.31;5050299;28;20029;-79
2022/12/10 08:26:56;;;;;;;63.95;23.73;;;;;;;18.82;72.74;100033.09;5064275;28;20044;-74
2022/12/10 08:29:21;;;;;;;62.03;21.83;;;;;;;18.71;72.83;100013.69;5050152;28;20067;-76
2022/12/10 08:31:47;;;;;;;65.15;21.08;;;;;;;18.82;72.64;100027.63;5051744;28;20025;-74
2022/12/10 08:34:15;;;;;;;74.13;24.67;;;;;;;18.85;72.72;100037.31;5052387;28;20036;-74
2022/12/10 08:36:41;;;;;;;61.03;19.02;;;;;;;18.86;72.72;100022.66;5051633;28;20025;-74
2022/12/10 08:39:06;;;;;;;63.00;20.08;;;;;;;18.87;72.46;100019.72;5049893;28;20040;-75
2022/12/10 08:41:32;;;;;;;56.60;16.67;;;;;;;18.80;72.44;100010.66;5049634;28;20450;-74
2022/12/10 08:43:57;;;;;;;64.07;17.25;;;;;;;18.81;72.53;100011.47;5049528;28;20036;-74
2022/12/10 08:46:24;;;;;;;54.45;23.00;;;;;;;18.81;72.67;99997.84;5048317;28;20039;-76
2022/12/10 08:48:50;;;;;;;65.13;18.83;;;;;;;18.94;72.55;100008.91;5049143;28;20040;-74
2022/12/10 08:51:18;;;;;;;71.63;19.42;;;;;;;18.97;72.30;99994.88;5049406;28;20049;-75
2022/12/10 08:53:44;;;;;;;48.28;17.35;;;;;;;19.08;72.07;99999.81;5053168;28;20489;-74
2022/12/10 08:56:10;;;;;;;52.88;16.48;;;;;;;19.17;71.80;100004.13;5052053;28;20042;-74
2022/12/10 08:58:36;;;;;;;53.05;16.98;;;;;;;19.21;71.43;99999.94;5048160;28;20028;-75
2022/12/10 09:01:06;;;;;;;56.33;18.85;;;;;;;19.24;71.24;99994.09;5049048;28;20025;-74
2022/12/10 09:03:31;;;;;;;58.75;18.17;;;;;;;19.28;71.53;99987.22;5049375;28;20110;-74
2022/12/10 09:06:02;;;;;;;53.40;18.35;;;;;;;19.35;71.18;99990.00;5048517;28;20076;-74
2022/12/10 09:08:27;;;;;;;55.40;17.15;;;;;;;19.41;71.11;99989.25;5049590;28;20025;-73
2022/12/10 09:10:53;;;;;;;47.55;16.25;;;;;;;19.50;71.05;99983.47;5049235;28;20028;-74
2022/12/10 09:13:18;;;;;;;70.95;18.77;;;;;;;19.59;70.49;99986.03;5049120;28;20403;-74
2022/12/10 09:15:52;;;;;;;57.13;18.05;;;;;;;19.33;69.76;99927.47;5049159;28;20082;-75
2022/12/10 09:18:17;;;;;;;48.22;15.40;;;;;;;19.71;69.70;99977.09;5047043;28;20072;-77
2022/12/10 09:20:43;;;;;;;41.08;13.20;;;;;;;19.67;69.34;99955.84;5049255;28;20073;-74
2022/12/10 09:23:08;;;;;;;52.00;15.18;;;;;;;19.85;68.66;99973.41;5049023;28;20108;-74
2022/12/10 09:25:34;;;;;;;57.35;13.90;;;;;;;19.68;68.04;99941.19;5049135;28;20123;-74
2022/12/10 09:27:59;;;;;;;32.97;12.95;;;;;;;19.77;68.37;99961.81;5048540;28;20031;-73
2022/12/10 09:30:25;;;;;;;52.35;14.10;;;;;;;19.89;68.32;99969.25;5049032;28;20142;-75
2022/12/10 09:32:50;;;;;;;49.65;13.68;;;;;;;19.94;67.73;99963.16;5048927;28;20017;-74
2022/12/10 09:35:15;;;;;;;46.58;15.00;;;;;;;20.04;67.64;99958.19;5049440;28;20036;-74
2022/12/10 09:37:41;;;;;;;39.90;14.20;;;;;;;20.14;67.56;99960.56;5051963;28;20428;-74
2022/12/10 09:40:09;;;;;;;50.00;14.40;;;;;;;20.19;67.09;99950.69;5053464;28;20522;-74
2022/12/10 09:42:38;;;;;;;41.15;13.07;;;;;;;20.26;66.68;99937.09;5049121;28;20052;-75
2022/12/10 09:45:41;;;;;;;63.10;16.15;;;;;;;20.31;66.25;99943.63;5048577;28;20040;-75
2022/12/10 09:48:32;;;;;;;62.40;15.95;;;;;;;20.31;65.85;99938.19;5048614;28;20048;-74
2022/12/10 09:51:07;;;;;;;49.80;14.85;;;;;;;20.37;65.83;99926.44;5048569;28;20076;-74
2022/12/10 09:53:35;;;;;;;65.35;18.15;;;;;;;20.39;65.66;99929.81;5048652;28;20036;-73
2022/12/10 09:56:02;;;;;;;82.18;19.40;;;;;;;20.40;65.57;99926.03;5048659;28;20044;-75
2022/12/10 09:58:28;;;;;;;83.00;19.55;;;;;;;20.41;65.62;99932.34;5048685;28;20765;-73
2022/12/10 10:01:03;;;;;;;55.08;17.02;;;;;;;20.40;65.75;99917.81;5048391;28;20029;-74
2022/12/10 10:03:34;;;;;;;64.70;15.30;;;;;;;20.30;65.19;99911.94;5047007;28;20627;-75
2022/12/10 10:06:00;;;;;;;45.35;14.50;;;;;;;20.39;65.13;99904.41;5048435;28;20033;-73
2022/12/10 10:08:36;;;;;;;50.03;14.75;;;;;;;20.41;65.24;99911.31;5048417;28;20427;-74
2022/12/10 10:11:03;;;;;;;63.83;15.18;;;;;;;20.43;65.15;99898.28;5048206;28;20029;-74
2022/12/10 10:14:20;;;;;;;60.92;17.23;;;;;;;20.43;64.69;99897.44;5048473;28;20056;-75
2022/12/10 10:16:54;;;;;;;55.25;17.33;;;;;;;20.30;64.25;99889.25;4928709;29;20139;-73
2022/12/10 10:19:28;;;;;;;62.08;17.75;;;;;;;20.31;64.46;99891.75;4932693;29;20187;-74
2022/12/10 10:21:53;;;;;;;42.90;13.82;;;;;;;20.10;64.60;99878.19;4932826;29;20047;-74
2022/12/10 10:24:28;;;;;;;40.72;14.73;;;;;;;20.03;64.38;99852.75;4935572;29;20439;-75
2022/12/10 10:26:57;;;;;;;43.58;14.95;;;;;;;20.23;64.28;99880.13;4934946;29;20095;-76
2022/12/10 10:29:26;;;;;;;38.28;13.68;;;;;;;20.21;64.48;99868.59;4932659;29;20504;-75
2022/12/10 10:32:12;;;;;;;43.28;13.18;;;;;;;20.07;64.56;99837.66;4901591;29;20500;-74
2022/12/10 10:34:39;;;;;;;41.78;12.55;;;;;;;20.28;64.23;99862.13;4932298;29;20040;-75
2022/12/10 10:37:05;;;;;;;63.72;14.00;;;;;;;20.15;63.91;99818.34;4900837;29;20091;-75
2022/12/10 10:39:35;;;;;;;49.17;15.25;;;;;;;20.33;63.94;99848.72;4933120;29;20039;-74
2022/12/10 10:42:09;;;;;;;54.13;12.50;;;;;;;20.38;63.46;99846.19;4934921;29;20069;-75
2022/12/10 10:44:37;;;;;;;54.47;14.38;;;;;;;20.41;63.26;99845.78;4934649;29;20539;-73
2022/12/10 10:47:24;;;;;;;41.85;11.85;;;;;;;20.52;63.30;99842.41;4932679;29;20134;-74
2022/12/10 10:49:49;;;;;;;60.55;15.07;;;;;;;20.64;63.09;99839.91;4932351;29;20060;-74
2022/12/10 10:52:16;;;;;;;41.00;12.07;;;;;;;20.72;62.59;99817.00;4966373;28;20621;-74
2022/12/10 10:54:44;;;;;;;56.67;11.45;;;;;;;20.80;61.77;99828.56;5041905;28;20073;-76
2022/12/10 10:57:33;;;;;;;58.60;13.25;;;;;;;20.77;61.99;99811.75;5052039;28;20116;-74
2022/12/10 11:00:24;;;;;;;43.05;9.80;;;;;;;20.88;60.56;99824.81;5051938;28;20036;-74
2022/12/10 11:02:50;;;;;;;46.50;8.43;;;;;;;21.03;59.84;99828.16;5051922;28;20032;-75
2022/12/10 11:05:26;;;;;;;33.28;7.75;;;;;;;21.23;58.60;99820.78;5051444;28;20151;-74
2022/12/10 11:08:07;;;;;;;36.20;8.98;;;;;;;21.01;58.63;99806.47;5051722;28;20560;-73
2022/12/10 11:10:32;;;;;;;33.60;8.27;;;;;;;21.28;58.65;99798.28;5051343;28;20064;-73
2022/12/10 11:13:18;;;;;;;28.27;7.45;;;;;;;21.42;58.41;99806.22;5050244;28;20053;-74
2022/12/10 11:15:44;;;;;;;33.00;7.80;;;;;;;21.47;57.33;99800.09;5051647;28;20021;-75
2022/12/10 11:18:50;;;;;;;29.55;8.43;;;;;;;21.66;57.17;99808.25;5051496;28;20056;-74
2022/12/10 11:21:21;;;;;;;47.95;11.52;;;;;;;21.71;56.28;99813.91;5008973;28;20034;-73
2022/12/10 11:23:52;;;;;;;36.83;8.55;;;;;;;21.64;56.55;99815.84;5008660;28;20038;-75
2022/12/10 11:26:38;;;;;;;23.40;6.85;;;;;;;21.55;56.58;99817.16;5008956;28;20475;-75
2022/12/10 11:29:41;;;;;;;28.92;7.38;;;;;;;21.47;56.42;99811.88;5008191;28;20088;-73